Terminal Aerodrome Forecast
Issued by NWS

Home | Current Version | Previous Version | Text Only | Print | Product List | Glossary On
Versions: 1 2 3 4 5 6 7 8 9 10 11 12 13 14 15 16 17
000
FTUS43 KABR 271130
TAFMBG
TAF
KMBG 271130Z 2712/2812 30006KT P6SM BKN150
     FM271500 26008KT P6SM SCT150
     FM271800 28012KT P6SM SCT200
     FM280400 30008KT P6SM FEW200=

USA.gov is the U.S. government's official web portal to all federal, state and local government web resources and services.